| time (UTC) | temp C | wind direction | speed KPH | gust KPH | rain 1hr cm | rain 24hr cm | rain mn cm | humidity % | barometer mb |
| 20260906215326 | 25 | 199 | 3.2 | 6.4 | 0.00 | 0.00 | 0.00 | 32 | 1032.8 |
| 20260906214824 | 26 | 167 | 4.8 | 9.7 | 0.00 | 0.00 | 0.00 | 32 | 1032.7 |
| 20260906214319 | 26 | 248 | 1.6 | 1.6 | 0.00 | 0.00 | 0.00 | 34 | 1033.4 |
| 20260906213819 | 26 | 234 | 3.2 | 4.8 | 0.00 | 0.00 | 0.00 | 32 | 1033.1 |
| 20260906213319 | 25 | 235 | 1.6 | 1.6 | 0.00 | 0.00 | 0.00 | 34 | 1032.8 |
| 20260906212816 | 26 | 277 | 3.2 | 4.8 | 0.00 | 0.00 | 0.00 | 35 | 1033.1 |
| 20260906212311 | 25 | 248 | 1.6 | 1.6 | 0.00 | 0.00 | 0.00 | 36 | 1033.4 |
| 20260906211811 | 26 | 195 | 3.2 | 4.8 | 0.00 | 0.00 | 0.00 | 32 | 1033.5 |
| 20260906211307 | 26 | 265 | 0.0 | 1.6 | 0.00 | 0.00 | 0.00 | 34 | 1033.6 |
| 20260906210807 | 26 | 277 | 1.6 | 3.2 | 0.00 | 0.00 | 0.00 | 34 | 1033.4 |
| 20260906210307 | 25 | 229 | 3.2 | 3.2 | 0.00 | 0.00 | 0.00 | 35 | 1033.4 |
| 20260906205801 | 25 | 216 | 3.2 | 4.8 | 0.00 | 0.00 | 0.00 | 33 | 1033.5 |
| 20260906205259 | 25 | 252 | 0.0 | 1.6 | 0.00 | 0.00 | 0.00 | 35 | 1033.5 |
| 20260906204754 | 25 | 249 | 1.6 | 3.2 | 0.00 | 0.00 | 0.00 | 35 | 1033.5 |
| 20260906204253 | 24 | 44 | 3.2 | 6.4 | 0.00 | 0.00 | 0.00 | 37 | 1033.6 |
| 20260906203752 | 24 | 254 | 0.0 | 1.6 | 0.00 | 0.00 | 0.00 | 36 | 1033.9 |
| 20260906203248 | 23 | 234 | 3.2 | 3.2 | 0.00 | 0.00 | 0.00 | 36 | 1034.0 |
| 20260906202744 | 23 | 257 | 1.6 | 1.6 | 0.00 | 0.00 | 0.00 | 36 | 1034.0 |
| 20260906202244 | 22 | 250 | 1.6 | 3.2 | 0.00 | 0.00 | 0.00 | 37 | 1033.9 |
| 20260906201739 | 21 | 222 | 3.2 | 3.2 | 0.00 | 0.00 | 0.00 | 36 | 1034.1 |
| 20260906201238 | 21 | 183 | 6.4 | 11.3 | 0.00 | 0.00 | 0.00 | 36 | 1034.1 |
| 20260906200734 | 22 | 240 | 1.6 | 3.2 | 0.00 | 0.00 | 0.00 | 38 | 1034.0 |
| 20260906200230 | 22 | 236 | 1.6 | 3.2 | 0.00 | 0.00 | 0.00 | 38 | 1034.3 |
| 20260906195725 | 22 | 235 | 1.6 | 3.2 | 0.00 | 0.00 | 0.00 | 39 | 1034.4 |
| 20260906195222 | 22 | 269 | 0.0 | 1.6 | 0.00 | 0.00 | 0.00 | 38 | 1034.1 |
| 20260906194717 | 23 | 257 | 1.6 | 3.2 | 0.00 | 0.00 | 0.00 | 37 | 1034.3 |
| 20260906194212 | 23 | 240 | 1.6 | 1.6 | 0.00 | 0.00 | 0.00 | 39 | 1034.3 |
| 20260906193708 | 23 | 252 | 3.2 | 4.8 | 0.00 | 0.00 | 0.00 | 38 | 1034.4 |
| 20260906193202 | 23 | 224 | 1.6 | 3.2 | 0.00 | 0.00 | 0.00 | 37 | 1034.5 |
| 20260906192658 | 23 | 241 | 3.2 | 3.2 | 0.00 | 0.00 | 0.00 | 37 | 1034.4 |
| 20260906192157 | 23 | 238 | 3.2 | 3.2 | 0.00 | 0.00 | 0.00 | 37 | 1034.3 |
| 20260906191653 | 23 | 243 | 4.8 | 9.7 | 0.00 | 0.00 | 0.00 | 38 | 1034.3 |
| 20260906191152 | 24 | 226 | 1.6 | 1.6 | 0.00 | 0.00 | 0.00 | 38 | 1034.5 |
| 20260906190646 | 25 | 232 | 1.6 | 1.6 | 0.00 | 0.00 | 0.00 | 38 | 1034.5 |
| 20260906190141 | 25 | 259 | 1.6 | 1.6 | 0.00 | 0.00 | 0.00 | 37 | 1034.5 |
| 20260906185640 | 25 | 192 | 1.6 | 1.6 | 0.00 | 0.00 | 0.00 | 35 | 1034.8 |
| 20260906185139 | 26 | 235 | 3.2 | 4.8 | 0.00 | 0.00 | 0.00 | 37 | 1034.7 |
| 20260906184634 | 25 | 242 | 3.2 | 3.2 | 0.00 | 0.00 | 0.00 | 36 | 1034.7 |
| 20260906184130 | 25 | 300 | 1.6 | 1.6 | 0.00 | 0.00 | 0.00 | 37 | 1034.8 |
| 20260906183625 | 25 | 168 | 3.2 | 4.8 | 0.00 | 0.00 | 0.00 | 38 | 1034.9 |
| 20260906183121 | 24 | 245 | 0.0 | 1.6 | 0.00 | 0.00 | 0.00 | 38 | 1034.7 |
| 20260906182615 | 24 | 236 | 3.2 | 3.2 | 0.00 | 0.00 | 0.00 | 38 | 1034.9 |
| 20260906182112 | 25 | 219 | 8.0 | 11.3 | 0.00 | 0.00 | 0.00 | 36 | 1035.2 |
| 20260906181612 | 24 | 234 | 1.6 | 3.2 | 0.00 | 0.00 | 0.00 | 39 | 1035.2 |
| 20260906181108 | 25 | 169 | 3.2 | 3.2 | 0.00 | 0.00 | 0.00 | 38 | 1035.3 |
| 20260906180603 | 24 | 240 | 3.2 | 3.2 | 0.00 | 0.00 | 0.00 | 38 | 1035.3 |
| 20260906175601 | 24 | 217 | 3.2 | 4.8 | 0.00 | 0.00 | 0.00 | 40 | 1035.5 |
| 20260906175056 | 23 | 267 | 0.0 | 1.6 | 0.00 | 0.00 | 0.00 | 43 | 1035.5 |
| 20260906174554 | 23 | 263 | 3.2 | 3.2 | 0.00 | 0.00 | 0.00 | 42 | 1035.6 |
| 20260906174050 | 23 | 251 | 1.6 | 1.6 | 0.00 | 0.00 | 0.00 | 43 | 1035.3 |
| 20260906173550 | 25 | 235 | 0.0 | 1.6 | 0.00 | 0.00 | 0.00 | 39 | 1035.5 |
| 20260906173047 | 23 | 243 | 0.0 | 1.6 | 0.00 | 0.00 | 0.00 | 44 | 1035.6 |
| 20260906172546 | 23 | 227 | 3.2 | 4.8 | 0.00 | 0.00 | 0.00 | 41 | 1035.7 |
| 20260906172042 | 22 | 224 | 3.2 | 4.8 | 0.00 | 0.00 | 0.00 | 44 | 1035.7 |
| 20260906171536 | 21 | 268 | 0.0 | 1.6 | 0.00 | 0.00 | 0.00 | 47 | 1036.0 |
| 20260906171032 | 21 | 203 | 3.2 | 4.8 | 0.00 | 0.00 | 0.00 | 46 | 1035.8 |
| 20260906170527 | 21 | 206 | 4.8 | 9.7 | 0.00 | 0.00 | 0.00 | 45 | 1035.6 |
| 20260906170027 | 22 | 271 | 1.6 | 1.6 | 0.00 | 0.00 | 0.00 | 45 | 1036.0 |
| 20260906165524 | 22 | 273 | 0.0 | 0.0 | 0.00 | 0.00 | 0.00 | 45 | 1035.6 |
| 20260906165024 | 22 | 256 | 1.6 | 1.6 | 0.00 | 0.00 | 0.00 | 44 | 1035.7 |
| 20260906164522 | 23 | 249 | 1.6 | 3.2 | 0.00 | 0.00 | 0.00 | 40 | 1035.8 |
| 20260906164020 | 23 | 228 | 3.2 | 3.2 | 0.00 | 0.00 | 0.00 | 38 | 1035.6 |
| 20260906163520 | 24 | 91 | 3.2 | 3.2 | 0.00 | 0.00 | 0.00 | 37 | 1035.8 |
| 20260906163015 | 23 | 266 | 1.6 | 3.2 | 0.00 | 0.00 | 0.00 | 39 | 1035.7 |
| 20260906162512 | 23 | 208 | 1.6 | 3.2 | 0.00 | 0.00 | 0.00 | 41 | 1035.7 |
| 20260906162007 | 23 | 253 | 3.2 | 3.2 | 0.00 | 0.00 | 0.00 | 40 | 1035.6 |
| 20260906161503 | 23 | 319 | 1.6 | 1.6 | 0.00 | 0.00 | 0.00 | 40 | 1035.7 |
| 20260906161001 | 22 | 126 | 3.2 | 4.8 | 0.00 | 0.00 | 0.00 | 40 | 1035.6 |
| 20260906160500 | 23 | 290 | 0.0 | 0.0 | 0.00 | 0.00 | 0.00 | 42 | 1035.7 |
| 20260906155958 | 22 | 165 | 0.0 | 0.0 | 0.00 | 0.00 | 0.00 | 47 | 1035.5 |
| 20260906155457 | 21 | 73 | 3.2 | 4.8 | 0.00 | 0.00 | 0.00 | 42 | 1035.6 |
| 20260906154953 | 22 | 106 | 4.8 | 6.4 | 0.00 | 0.00 | 0.00 | 41 | 1035.7 |
| 20260906154449 | 22 | 122 | 0.0 | 1.6 | 0.00 | 0.00 | 0.00 | 40 | 1035.2 |
| 20260906153947 | 23 | 176 | 3.2 | 3.2 | 0.00 | 0.00 | 0.00 | 40 | 1035.5 |
| 20260906153446 | 23 | 246 | 1.6 | 1.6 | 0.00 | 0.00 | 0.00 | 40 | 1035.2 |
| 20260906152941 | 22 | 232 | 3.2 | 4.8 | 0.00 | 0.00 | 0.00 | 40 | 1035.3 |
| 20260906152441 | 22 | 234 | 1.6 | 1.6 | 0.00 | 0.00 | 0.00 | 42 | 1035.3 |
| 20260906151940 | 22 | 248 | 0.0 | 1.6 | 0.00 | 0.00 | 0.00 | 43 | 1035.3 |
| 20260906151436 | 22 | 201 | 1.6 | 1.6 | 0.00 | 0.00 | 0.00 | 42 | 1035.3 |
| 20260906150932 | 23 | 250 | 0.0 | 1.6 | 0.00 | 0.00 | 0.00 | 39 | 1035.5 |
| 20260906150427 | 22 | 275 | 0.0 | 0.0 | 0.00 | 0.00 | 0.00 | 40 | 1035.5 |
| 20260906145927 | 22 | 246 | 0.0 | 0.0 | 0.00 | 0.00 | 0.00 | 41 | 1035.1 |
| 20260906145426 | 22 | 229 | 1.6 | 1.6 | 0.00 | 0.00 | 0.00 | 39 | 1035.1 |
| 20260906144921 | 22 | 263 | 0.0 | 1.6 | 0.00 | 0.00 | 0.00 | 39 | 1034.9 |
| 20260906144421 | 21 | 302 | 0.0 | 0.0 | 0.00 | 0.00 | 0.00 | 39 | 1034.9 |
| 20260906143916 | 22 | 303 | 1.6 | 1.6 | 0.00 | 0.00 | 0.00 | 39 | 1035.2 |
| 20260906143412 | 22 | 261 | 0.0 | 0.0 | 0.00 | 0.00 | 0.00 | 38 | 1034.9 |
| 20260906142908 | 21 | 248 | 0.0 | 0.0 | 0.00 | 0.00 | 0.00 | 38 | 1035.2 |
| 20260906142408 | 21 | 246 | 0.0 | 1.6 | 0.00 | 0.00 | 0.00 | 40 | 1035.1 |
| 20260906141908 | 21 | 250 | 0.0 | 0.0 | 0.00 | 0.00 | 0.00 | 41 | 1035.1 |
| 20260906141402 | 20 | 241 | 1.6 | 1.6 | 0.00 | 0.00 | 0.00 | 43 | 1034.9 |
| 20260906140902 | 20 | 246 | 0.0 | 1.6 | 0.00 | 0.00 | 0.00 | 43 | 1035.2 |
| 20260906140356 | 20 | 211 | 3.2 | 3.2 | 0.00 | 0.00 | 0.00 | 42 | 1035.1 |
| 20260906135855 | 20 | 248 | 0.0 | 1.6 | 0.00 | 0.00 | 0.00 | 42 | 1034.9 |
| 20260906135354 | 19 | 225 | 1.6 | 3.2 | 0.00 | 0.00 | 0.00 | 42 | 1034.7 |
| 20260906134850 | 19 | 248 | 1.6 | 3.2 | 0.00 | 0.00 | 0.00 | 42 | 1034.8 |
| 20260906134344 | 19 | 247 | 1.6 | 1.6 | 0.00 | 0.00 | 0.00 | 43 | 1034.7 |
| 20260906133840 | 20 | 255 | 0.0 | 0.0 | 0.00 | 0.00 | 0.00 | 44 | 1034.7 |
| 20260906133336 | 19 | 257 | 0.0 | 0.0 | 0.00 | 0.00 | 0.00 | 45 | 1034.4 |
| 20260906132831 | 18 | 236 | 3.2 | 3.2 | 0.00 | 0.00 | 0.00 | 41 | 1034.4 |
| 20260906132326 | 18 | 251 | 1.6 | 1.6 | 0.00 | 0.00 | 0.00 | 44 | 1034.3 |
| 20260906131822 | 17 | 233 | 3.2 | 3.2 | 0.00 | 0.00 | 0.00 | 44 | 1034.3 |
| 20260906131317 | 17 | 253 | 0.0 | 0.0 | 0.00 | 0.00 | 0.00 | 45 | 1034.3 |
| 20260906130813 | 17 | 228 | 3.2 | 3.2 | 0.00 | 0.00 | 0.00 | 45 | 1034.3 |
| 20260906130312 | 17 | 209 | 1.6 | 3.2 | 0.00 | 0.00 | 0.00 | 45 | 1034.0 |
| 20260906125811 | 17 | 237 | 1.6 | 1.6 | 0.00 | 0.00 | 0.00 | 45 | 1034.1 |
| 20260906125310 | 17 | 301 | 0.0 | 0.0 | 0.00 | 0.00 | 0.00 | 45 | 1034.0 |
| 20260906124810 | 16 | 298 | 0.0 | 0.0 | 0.00 | 0.00 | 0.00 | 45 | 1033.9 |
| 20260906124306 | 16 | 298 | 0.0 | 0.0 | 0.00 | 0.00 | 0.00 | 46 | 1034.0 |
| 20260906123804 | 17 | 298 | 0.0 | 0.0 | 0.00 | 0.00 | 0.00 | 45 | 1033.8 |
| 20260906123300 | 17 | 298 | 0.0 | 0.0 | 0.00 | 0.00 | 0.00 | 44 | 1033.9 |
| 20260906122759 | 16 | 293 | 0.0 | 1.6 | 0.00 | 0.00 | 0.00 | 43 | 1033.8 |
| 20260906122255 | 16 | 293 | 0.0 | 0.0 | 0.00 | 0.00 | 0.00 | 44 | 1033.8 |
| 20260906121751 | 16 | 293 | 0.0 | 0.0 | 0.00 | 0.00 | 0.00 | 44 | 1033.5 |
| 20260906121247 | 16 | 291 | 0.0 | 0.0 | 0.00 | 0.00 | 0.00 | 44 | 1033.6 |
| 20260906120743 | 17 | 291 | 0.0 | 0.0 | 0.00 | 0.00 | 0.00 | 43 | 1033.9 |
| 20260906120240 | 17 | 290 | 0.0 | 0.0 | 0.00 | 0.00 | 0.00 | 43 | 1033.9 |
| 20260906115735 | 16 | 279 | 0.0 | 1.6 | 0.00 | 0.00 | 0.00 | 44 | 1033.9 |
| 20260906115230 | 16 | 298 | 0.0 | 0.0 | 0.00 | 0.00 | 0.00 | 46 | 1033.9 |
| 20260906114729 | 16 | 301 | 1.6 | 1.6 | 0.00 | 0.00 | 0.00 | 45 | 1033.9 |
| 20260906114224 | 16 | 301 | 1.6 | 1.6 | 0.00 | 0.00 | 0.00 | 45 | 1033.9 |
| 20260906113720 | 16 | 310 | 1.6 | 1.6 | 0.00 | 0.00 | 0.00 | 45 | 1034.0 |
| 20260906113219 | 16 | 311 | 1.6 | 1.6 | 0.00 | 0.00 | 0.00 | 45 | 1033.9 |
| 20260906112718 | 16 | 310 | 1.6 | 1.6 | 0.00 | 0.00 | 0.00 | 45 | 1033.8 |
| 20260906112216 | 16 | 311 | 0.0 | 1.6 | 0.00 | 0.00 | 0.00 | 45 | 1033.9 |
| 20260906111715 | 16 | 306 | 0.0 | 1.6 | 0.00 | 0.00 | 0.00 | 45 | 1034.0 |
| 20260906111209 | 16 | 300 | 0.0 | 1.6 | 0.00 | 0.00 | 0.00 | 46 | 1033.8 |
| 20260906110705 | 16 | 299 | 1.6 | 1.6 | 0.00 | 0.00 | 0.00 | 46 | 1034.0 |
| 20260906110201 | 16 | 297 | 0.0 | 0.0 | 0.00 | 0.00 | 0.00 | 48 | 1034.0 |
| 20260906105700 | 16 | 296 | 0.0 | 0.0 | 0.00 | 0.00 | 0.00 | 48 | 1034.0 |
| 20260906105156 | 16 | 296 | 1.6 | 1.6 | 0.00 | 0.00 | 0.00 | 47 | 1033.8 |
| 20260906104655 | 16 | 296 | 0.0 | 1.6 | 0.00 | 0.00 | 0.00 | 47 | 1033.9 |
| 20260906104154 | 16 | 285 | 0.0 | 0.0 | 0.00 | 0.00 | 0.00 | 47 | 1033.8 |
| 20260906103652 | 16 | 284 | 0.0 | 0.0 | 0.00 | 0.00 | 0.00 | 47 | 1034.1 |
| 20260906103148 | 16 | 284 | 0.0 | 0.0 | 0.00 | 0.00 | 0.00 | 47 | 1034.0 |
| 20260906102643 | 16 | 282 | 0.0 | 0.0 | 0.00 | 0.00 | 0.00 | 46 | 1033.9 |
| 20260906102143 | 15 | 264 | 1.6 | 1.6 | 0.00 | 0.00 | 0.00 | 49 | 1034.0 |
| 20260906101643 | 15 | 298 | 0.0 | 0.0 | 0.00 | 0.00 | 0.00 | 54 | 1033.8 |
| 20260906101143 | 15 | 299 | 1.6 | 1.6 | 0.00 | 0.00 | 0.00 | 53 | 1033.9 |
| 20260906100639 | 16 | 277 | 0.0 | 1.6 | 0.00 | 0.00 | 0.00 | 52 | 1033.8 |
| 20260906100134 | 15 | 233 | 3.2 | 6.4 | 0.00 | 0.00 | 0.00 | 53 | 1033.9 |
| 20260906095634 | 15 | 240 | 6.4 | 9.7 | 0.00 | 0.00 | 0.00 | 52 | 1033.8 |
| 20260906095129 | 15 | 264 | 4.8 | 6.4 | 0.00 | 0.00 | 0.00 | 52 | 1033.8 |
| 20260906094628 | 15 | 238 | 6.4 | 6.4 | 0.00 | 0.00 | 0.00 | 54 | 1034.0 |
| 20260906094124 | 15 | 244 | 3.2 | 3.2 | 0.00 | 0.00 | 0.00 | 57 | 1033.8 |
| 20260906093620 | 15 | 248 | 3.2 | 4.8 | 0.00 | 0.00 | 0.00 | 59 | 1034.0 |
| 20260906093114 | 15 | 221 | 6.4 | 9.7 | 0.00 | 0.00 | 0.00 | 60 | 1034.0 |
| 20260906092609 | 15 | 218 | 3.2 | 4.8 | 0.00 | 0.00 | 0.00 | 62 | 1034.0 |
| 20260906092104 | 14 | 225 | 1.6 | 3.2 | 0.00 | 0.00 | 0.00 | 64 | 1034.0 |
| 20260906091600 | 13 | 214 | 8.0 | 9.7 | 0.00 | 0.00 | 0.00 | 64 | 1034.0 |
| 20260906091057 | 13 | 239 | 3.2 | 3.2 | 0.00 | 0.00 | 0.00 | 65 | 1034.0 |
| 20260906090556 | 13 | 254 | 0.0 | 1.6 | 0.00 | 0.00 | 0.00 | 63 | 1034.3 |
| 20260906090051 | 14 | 256 | 0.0 | 0.0 | 0.00 | 0.00 | 0.00 | 62 | 1034.0 |
| 20260906085550 | 14 | 246 | 1.6 | 1.6 | 0.00 | 0.00 | 0.00 | 60 | 1033.9 |
| 20260906085050 | 15 | 210 | 3.2 | 3.2 | 0.00 | 0.00 | 0.00 | 59 | 1034.0 |
| 20260906084545 | 15 | 216 | 3.2 | 4.8 | 0.00 | 0.00 | 0.00 | 59 | 1034.3 |
| 20260906084043 | 15 | 225 | 3.2 | 3.2 | 0.00 | 0.00 | 0.00 | 58 | 1034.3 |
| 20260906083539 | 15 | 225 | 3.2 | 3.2 | 0.00 | 0.00 | 0.00 | 58 | 1034.1 |
| 20260906083039 | 15 | 235 | 1.6 | 1.6 | 0.00 | 0.00 | 0.00 | 58 | 1034.0 |
| 20260906082534 | 15 | 225 | 1.6 | 3.2 | 0.00 | 0.00 | 0.00 | 58 | 1034.1 |
| 20260906082030 | 15 | 216 | 3.2 | 3.2 | 0.00 | 0.00 | 0.00 | 57 | 1034.3 |
| 20260906081526 | 16 | 250 | 1.6 | 3.2 | 0.00 | 0.00 | 0.00 | 52 | 1034.0 |
| 20260906081022 | 18 | 239 | 1.6 | 1.6 | 0.00 | 0.00 | 0.00 | 44 | 1034.1 |
| 20260906080518 | 18 | 257 | 1.6 | 1.6 | 0.00 | 0.00 | 0.00 | 43 | 1034.1 |
| 20260906080014 | 18 | 266 | 0.0 | 0.0 | 0.00 | 0.00 | 0.00 | 43 | 1034.1 |
| 20260906075513 | 17 | 263 | 1.6 | 1.6 | 0.00 | 0.00 | 0.00 | 44 | 1034.3 |
| 20260906075008 | 17 | 269 | 0.0 | 1.6 | 0.00 | 0.00 | 0.00 | 45 | 1034.3 |
| 20260906074503 | 17 | 258 | 3.2 | 3.2 | 0.00 | 0.00 | 0.00 | 45 | 1034.3 |
| 20260906074001 | 17 | 269 | 3.2 | 3.2 | 0.00 | 0.00 | 0.00 | 46 | 1034.4 |
| 20260906073456 | 17 | 271 | 1.6 | 1.6 | 0.00 | 0.00 | 0.00 | 47 | 1034.3 |
| 20260906072952 | 17 | 267 | 1.6 | 1.6 | 0.00 | 0.00 | 0.00 | 47 | 1034.0 |
| 20260906072447 | 17 | 268 | 1.6 | 1.6 | 0.00 | 0.00 | 0.00 | 48 | 1034.4 |
| 20260906071943 | 17 | 267 | 1.6 | 3.2 | 0.00 | 0.00 | 0.00 | 49 | 1034.5 |
| 20260906071439 | 17 | 274 | 1.6 | 3.2 | 0.00 | 0.00 | 0.00 | 49 | 1034.4 |
| 20260906070935 | 17 | 267 | 1.6 | 1.6 | 0.00 | 0.00 | 0.00 | 50 | 1034.5 |
| 20260906070431 | 17 | 269 | 3.2 | 3.2 | 0.00 | 0.00 | 0.00 | 50 | 1034.4 |
| 20260906065926 | 17 | 273 | 1.6 | 1.6 | 0.00 | 0.00 | 0.00 | 51 | 1034.7 |
| 20260906065420 | 17 | 266 | 3.2 | 3.2 | 0.00 | 0.00 | 0.00 | 52 | 1034.7 |
| 20260906064916 | 17 | 276 | 1.6 | 3.2 | 0.00 | 0.00 | 0.00 | 52 | 1034.4 |
| 20260906064413 | 16 | 259 | 3.2 | 3.2 | 0.00 | 0.00 | 0.00 | 53 | 1034.5 |
| 20260906063912 | 16 | 276 | 1.6 | 3.2 | 0.00 | 0.00 | 0.00 | 54 | 1034.7 |
| 20260906063408 | 16 | 291 | 3.2 | 3.2 | 0.00 | 0.00 | 0.00 | 54 | 1034.8 |
| 20260906062902 | 16 | 268 | 4.8 | 6.4 | 0.00 | 0.00 | 0.00 | 55 | 1034.5 |
| 20260906062402 | 16 | 290 | 1.6 | 3.2 | 0.00 | 0.00 | 0.00 | 57 | 1034.7 |
| 20260906061858 | 16 | 284 | 3.2 | 3.2 | 0.00 | 0.00 | 0.00 | 57 | 1034.5 |
| 20260906061354 | 16 | 265 | 1.6 | 1.6 | 0.00 | 0.00 | 0.00 | 57 | 1034.7 |
| 20260906060848 | 16 | 265 | 1.6 | 3.2 | 0.00 | 0.00 | 0.00 | 57 | 1034.5 |
| 20260906060346 | 16 | 261 | 1.6 | 3.2 | 0.00 | 0.00 | 0.00 | 58 | 1034.9 |
| 20260906055841 | 16 | 269 | 0.0 | 0.0 | 0.00 | 0.00 | 0.00 | 57 | 1034.8 |
| 20260906055337 | 16 | 271 | 0.0 | 0.0 | 0.00 | 0.00 | 0.00 | 57 | 1034.7 |
| 20260906054832 | 16 | 282 | 1.6 | 1.6 | 0.00 | 0.00 | 0.00 | 57 | 1034.8 |
| 20260906054327 | 16 | 275 | 1.6 | 1.6 | 0.00 | 0.00 | 0.00 | 58 | 1035.2 |
| 20260906053824 | 16 | 281 | 0.0 | 1.6 | 0.00 | 0.00 | 0.00 | 59 | 1035.1 |
| 20260906053319 | 15 | 290 | 0.0 | 0.0 | 0.00 | 0.00 | 0.00 | 63 | 1035.1 |
| 20260906052814 | 15 | 312 | 0.0 | 0.0 | 0.00 | 0.00 | 0.00 | 59 | 1035.2 |
| 20260906052310 | 15 | 312 | 0.0 | 0.0 | 0.00 | 0.00 | 0.00 | 58 | 1035.1 |
| 20260906051808 | 15 | 307 | 0.0 | 0.0 | 0.00 | 0.00 | 0.00 | 59 | 1035.3 |
| 20260906051307 | 15 | 299 | 0.0 | 0.0 | 0.00 | 0.00 | 0.00 | 62 | 1035.1 |
| 20260906050802 | 15 | 279 | 0.0 | 0.0 | 0.00 | 0.00 | 0.00 | 65 | 1035.2 |
| 20260906050257 | 15 | 277 | 0.0 | 0.0 | 0.00 | 0.00 | 0.00 | 67 | 1035.2 |
| 20260906045756 | 15 | 277 | 0.0 | 0.0 | 0.00 | 0.00 | 0.00 | 66 | 1035.2 |
| 20260906045250 | 16 | 275 | 0.0 | 0.0 | 0.00 | 0.00 | 0.00 | 63 | 1034.9 |
| 20260906044747 | 16 | 264 | 0.0 | 0.0 | 0.00 | 0.00 | 0.00 | 62 | 1034.9 |
| 20260906044241 | 16 | 260 | 0.0 | 1.6 | 0.00 | 0.00 | 0.00 | 61 | 1035.1 |
| 20260906043738 | 16 | 257 | 0.0 | 0.0 | 0.00 | 0.00 | 0.00 | 59 | 1035.1 |
| 20260906043233 | 17 | 254 | 0.0 | 1.6 | 0.00 | 0.00 | 0.00 | 57 | 1035.1 |
| 20260906042733 | 17 | 255 | 0.0 | 0.0 | 0.00 | 0.00 | 0.00 | 52 | 1035.2 |
| 20260906042232 | 17 | 253 | 0.0 | 1.6 | 0.00 | 0.00 | 0.00 | 51 | 1035.1 |
| 20260906041727 | 18 | 254 | 0.0 | 1.6 | 0.00 | 0.00 | 0.00 | 50 | 1035.1 |
| 20260906041222 | 18 | 233 | 3.2 | 3.2 | 0.00 | 0.00 | 0.00 | 49 | 1034.9 |
| 20260906040718 | 17 | 226 | 1.6 | 1.6 | 0.00 | 0.00 | 0.00 | 50 | 1034.9 |
| 20260906040214 | 17 | 254 | 1.6 | 3.2 | 0.00 | 0.00 | 0.00 | 50 | 1034.9 |
| 20260906035709 | 17 | 245 | 1.6 | 1.6 | 0.00 | 0.00 | 0.00 | 51 | 1034.7 |
| 20260906035205 | 18 | 255 | 1.6 | 1.6 | 0.00 | 0.00 | 0.00 | 50 | 1034.9 |
| 20260906034704 | 18 | 254 | 0.0 | 0.0 | 0.00 | 0.00 | 0.00 | 50 | 1035.2 |
| 20260906034159 | 18 | 256 | 0.0 | 0.0 | 0.00 | 0.00 | 0.00 | 48 | 1035.1 |
| 20260906033655 | 19 | 256 | 0.0 | 0.0 | 0.00 | 0.00 | 0.00 | 47 | 1034.8 |
| 20260906033156 | 19 | 241 | 1.6 | 3.2 | 0.00 | 0.00 | 0.00 | 46 | 1034.9 |
| 20260906032651 | 18 | 247 | 1.6 | 1.6 | 0.00 | 0.00 | 0.00 | 47 | 1034.7 |
| 20260906032146 | 19 | 253 | 0.0 | 1.6 | 0.00 | 0.00 | 0.00 | 48 | 1035.1 |
| 20260906031641 | 19 | 251 | 1.6 | 1.6 | 0.00 | 0.00 | 0.00 | 47 | 1034.9 |
| 20260906031136 | 19 | 248 | 1.6 | 1.6 | 0.00 | 0.00 | 0.00 | 48 | 1034.7 |
| 20260906030636 | 19 | 245 | 1.6 | 1.6 | 0.00 | 0.00 | 0.00 | 48 | 1034.9 |
| 20260906030131 | 19 | 276 | 0.0 | 0.0 | 0.00 | 0.00 | 0.00 | 48 | 1034.8 |
| 20260906025630 | 19 | 276 | 0.0 | 0.0 | 0.00 | 0.00 | 0.00 | 48 | 1034.7 |
| 20260906025129 | 19 | 277 | 0.0 | 0.0 | 0.00 | 0.00 | 0.00 | 48 | 1034.3 |
| 20260906024624 | 19 | 278 | 0.0 | 1.6 | 0.00 | 0.00 | 0.00 | 48 | 1034.5 |
| 20260906024119 | 19 | 275 | 1.6 | 1.6 | 0.00 | 0.00 | 0.00 | 48 | 1034.4 |
| 20260906023615 | 19 | 281 | 0.0 | 0.0 | 0.00 | 0.00 | 0.00 | 48 | 1034.1 |
| 20260906023115 | 19 | 273 | 0.0 | 1.6 | 0.00 | 0.00 | 0.00 | 48 | 1034.3 |
| 20260906022610 | 18 | 262 | 3.2 | 3.2 | 0.00 | 0.00 | 0.00 | 48 | 1034.3 |
| 20260906022106 | 18 | 275 | 1.6 | 1.6 | 0.00 | 0.00 | 0.00 | 50 | 1034.4 |
| 20260906021602 | 18 | 290 | 0.0 | 0.0 | 0.00 | 0.00 | 0.00 | 51 | 1034.4 |
| 20260906021100 | 18 | 291 | 1.6 | 1.6 | 0.00 | 0.00 | 0.00 | 52 | 1034.3 |
| 20260906020600 | 18 | 292 | 0.0 | 0.0 | 0.00 | 0.00 | 0.00 | 51 | 1034.1 |
| 20260906020100 | 18 | 295 | 0.0 | 1.6 | 0.00 | 0.00 | 0.00 | 51 | 1034.1 |
| 20260906015554 | 18 | 277 | 0.0 | 1.6 | 0.00 | 0.00 | 0.00 | 52 | 1034.1 |
| 20260906015053 | 18 | 275 | 1.6 | 1.6 | 0.00 | 0.00 | 0.00 | 51 | 1034.0 |
| 20260906014548 | 18 | 288 | 1.6 | 1.6 | 0.00 | 0.00 | 0.00 | 51 | 1033.9 |
| 20260906014044 | 18 | 280 | 1.6 | 1.6 | 0.00 | 0.00 | 0.00 | 51 | 1034.0 |
| 20260906013539 | 18 | 280 | 1.6 | 1.6 | 0.00 | 0.00 | 0.00 | 52 | 1033.8 |
| 20260906013034 | 18 | 282 | 1.6 | 1.6 | 0.00 | 0.00 | 0.00 | 52 | 1033.8 |
| 20260906012529 | 18 | 286 | 1.6 | 1.6 | 0.00 | 0.00 | 0.00 | 53 | 1033.6 |
| 20260906012029 | 19 | 274 | 0.0 | 0.0 | 0.00 | 0.00 | 0.00 | 52 | 1033.8 |
| 20260906011525 | 19 | 268 | 0.0 | 0.0 | 0.00 | 0.00 | 0.00 | 52 | 1034.0 |
| 20260906011025 | 19 | 262 | 0.0 | 0.0 | 0.00 | 0.00 | 0.00 | 51 | 1034.0 |
| 20260906010520 | 19 | 257 | 1.6 | 1.6 | 0.00 | 0.00 | 0.00 | 51 | 1033.8 |
| 20260906010017 | 20 | 251 | 0.0 | 1.6 | 0.00 | 0.00 | 0.00 | 50 | 1033.9 |
| 20260906005516 | 20 | 262 | 1.6 | 1.6 | 0.00 | 0.00 | 0.00 | 49 | 1033.9 |
| 20260906005015 | 21 | 264 | 0.0 | 1.6 | 0.00 | 0.00 | 0.00 | 48 | 1034.0 |
| 20260906004515 | 21 | 209 | 6.4 | 6.4 | 0.00 | 0.00 | 0.00 | 48 | 1034.0 |
| 20260906004010 | 21 | 252 | 1.6 | 3.2 | 0.00 | 0.00 | 0.00 | 48 | 1033.9 |
| 20260906003505 | 21 | 248 | 3.2 | 3.2 | 0.00 | 0.00 | 0.00 | 49 | 1034.0 |
| 20260906003001 | 21 | 225 | 3.2 | 3.2 | 0.00 | 0.00 | 0.00 | 48 | 1034.0 |
| 20260906002501 | 21 | 223 | 0.0 | 3.2 | 0.00 | 0.00 | 0.00 | 48 | 1034.0 |
| 20260906001955 | 21 | 252 | 0.0 | 0.0 | 0.00 | 0.00 | 0.00 | 49 | 1033.9 |
| 20260906001451 | 21 | 223 | 3.2 | 3.2 | 0.00 | 0.00 | 0.00 | 48 | 1033.9 |
| 20260906000946 | 21 | 253 | 1.6 | 1.6 | 0.00 | 0.00 | 0.00 | 49 | 1033.9 |
| 20260906000442 | 21 | 235 | 3.2 | 3.2 | 0.00 | 0.00 | 0.00 | 48 | 1033.9 |
| 20260905235936 | 21 | 256 | 0.0 | 0.0 | 0.00 | 0.00 | 0.00 | 50 | 1034.0 |
| 20260905235436 | 21 | 266 | 1.6 | 1.6 | 0.00 | 0.00 | 0.00 | 49 | 1033.9 |
| 20260905234931 | 21 | 215 | 3.2 | 3.2 | 0.00 | 0.00 | 0.00 | 50 | 1033.9 |
| 20260905234427 | 21 | 252 | 1.6 | 1.6 | 0.00 | 0.00 | 0.00 | 50 | 1033.9 |
| 20260905233926 | 21 | 258 | 1.6 | 1.6 | 0.00 | 0.00 | 0.00 | 51 | 1034.0 |
| 20260905233422 | 21 | 266 | 0.0 | 1.6 | 0.00 | 0.00 | 0.00 | 50 | 1033.9 |
| 20260905232921 | 21 | 279 | 1.6 | 1.6 | 0.00 | 0.00 | 0.00 | 48 | 1033.8 |
| 20260905232417 | 21 | 236 | 0.0 | 0.0 | 0.00 | 0.00 | 0.00 | 49 | 1033.9 |
| 20260905231912 | 21 | 212 | 4.8 | 6.4 | 0.00 | 0.00 | 0.00 | 48 | 1034.0 |
| 20260905231408 | 21 | 225 | 3.2 | 3.2 | 0.00 | 0.00 | 0.00 | 47 | 1034.0 |
| 20260905230905 | 22 | 244 | 1.6 | 1.6 | 0.00 | 0.00 | 0.00 | 48 | 1033.9 |
| 20260905230403 | 22 | 222 | 4.8 | 4.8 | 0.00 | 0.00 | 0.00 | 46 | 1033.9 |
| 20260905225901 | 22 | 226 | 6.4 | 6.4 | 0.00 | 0.00 | 0.00 | 46 | 1034.0 |
| 20260905225356 | 21 | 240 | 0.0 | 1.6 | 0.00 | 0.00 | 0.00 | 48 | 1033.8 |
| 20260905224852 | 22 | 253 | 1.6 | 1.6 | 0.00 | 0.00 | 0.00 | 47 | 1034.0 |
| 20260905224347 | 22 | 260 | 3.2 | 4.8 | 0.00 | 0.00 | 0.00 | 47 | 1034.0 |
| 20260905223841 | 21 | 223 | 1.6 | 3.2 | 0.00 | 0.00 | 0.00 | 48 | 1034.1 |
| 20260905223339 | 21 | 213 | 4.8 | 6.4 | 0.00 | 0.00 | 0.00 | 49 | 1034.3 |
| 20260905222834 | 21 | 244 | 3.2 | 4.8 | 0.00 | 0.00 | 0.00 | 49 | 1034.4 |
| 20260905222333 | 21 | 244 | 3.2 | 3.2 | 0.00 | 0.00 | 0.00 | 48 | 1034.1 |
| 20260905221829 | 20 | 217 | 1.6 | 1.6 | 0.00 | 0.00 | 0.00 | 51 | 1034.3 |
| 20260905221326 | 21 | 241 | 0.0 | 0.0 | 0.00 | 0.00 | 0.00 | 47 | 1034.4 |
| 20260905220821 | 21 | 233 | 1.6 | 1.6 | 0.00 | 0.00 | 0.00 | 48 | 1034.4 |
| 20260905220317 | 21 | 215 | 4.8 | 6.4 | 0.00 | 0.00 | 0.00 | 48 | 1034.4 |
| 20260905215816 | 21 | 235 | 3.2 | 4.8 | 0.00 | 0.00 | 0.00 | 48 | 1034.4 |